createdAt,value
2024-02-14T00:02:18.973Z,101164.31
2024-02-14T00:04:55.956Z,101167.00
2024-02-14T00:07:33.827Z,101167.73
2024-02-14T00:10:08.041Z,101170.58
2024-02-14T00:12:44.976Z,101173.64
2024-02-14T00:15:21.846Z,101174.13
2024-02-14T00:17:59.615Z,101177.66
2024-02-14T00:20:37.350Z,101182.89
2024-02-14T00:23:14.347Z,101185.93
2024-02-14T00:25:51.413Z,101187.01
2024-02-14T00:28:22.005Z,101192.77
2024-02-14T00:30:57.147Z,101194.79
2024-02-14T00:33:34.313Z,101196.77
2024-02-14T00:36:12.556Z,101197.84
2024-02-14T00:38:49.281Z,101198.48
2024-02-14T00:41:26.604Z,101199.58
2024-02-14T00:44:04.590Z,101193.64
2024-02-14T00:46:41.968Z,101192.45
2024-02-14T00:49:18.809Z,101195.91
2024-02-14T00:51:56.039Z,101195.15
2024-02-14T00:54:32.928Z,101194.56
2024-02-14T00:57:03.643Z,101195.35
2024-02-14T00:59:38.098Z,101195.65
2024-02-14T01:02:15.615Z,101195.17
2024-02-14T01:04:52.486Z,101194.91
2024-02-14T01:07:30.146Z,101192.99
2024-02-14T01:10:07.930Z,101194.69
2024-02-14T01:12:44.781Z,101194.25
2024-02-14T01:15:23.465Z,101198.27
2024-02-14T01:18:00.757Z,101201.63
2024-02-14T01:20:38.684Z,101204.34
2024-02-14T01:23:16.043Z,101205.51
2024-02-14T01:25:53.398Z,101203.72
2024-02-14T01:28:23.938Z,101205.11
2024-02-14T01:30:59.094Z,101204.98
2024-02-14T01:33:36.519Z,101202.30
2024-02-14T01:36:13.622Z,101205.14
2024-02-14T01:38:50.204Z,101205.64
2024-02-14T01:41:27.366Z,101194.84
2024-02-14T01:44:03.970Z,101204.50
2024-02-14T01:46:41.156Z,101205.84
2024-02-14T01:49:19.561Z,101203.04
2024-02-14T01:51:56.914Z,101202.36
2024-02-14T01:54:34.740Z,101204.36
2024-02-14T01:57:40.188Z,101211.45
2024-02-14T02:00:21.155Z,101204.95
2024-02-14T02:02:58.940Z,101196.43
2024-02-14T02:05:36.429Z,101220.29
2024-02-14T02:08:14.145Z,101221.46
2024-02-14T02:10:51.784Z,101225.13
2024-02-14T02:13:29.146Z,101223.63
2024-02-14T02:16:06.397Z,101223.58
2024-02-14T02:21:28.427Z,101227.61
2024-02-14T02:24:06.507Z,101224.11
2024-02-14T02:26:43.538Z,101225.27
2024-02-14T02:29:21.439Z,101225.93
2024-02-14T02:31:58.513Z,101227.91
2024-02-14T02:34:35.149Z,101228.37
2024-02-14T02:37:09.949Z,101226.34
2024-02-14T02:39:41.710Z,101230.33
2024-02-14T02:42:19.794Z,101229.45
2024-02-14T02:44:53.587Z,101236.02
2024-02-14T02:47:31.267Z,101238.99
2024-02-14T02:50:09.388Z,101236.73
2024-02-14T02:52:47.483Z,101233.86
2024-02-14T02:55:24.585Z,101239.52
2024-02-14T02:58:01.120Z,101242.41
2024-02-14T03:00:38.439Z,101244.89
2024-02-14T03:03:18.681Z,101244.50
2024-02-14T03:05:56.927Z,101243.37
2024-02-14T03:08:36.026Z,101243.93
2024-02-14T03:11:08.600Z,101243.47
2024-02-14T03:13:42.808Z,101253.23
2024-02-14T03:16:20.852Z,101256.41
2024-02-14T03:18:57.524Z,101255.89
2024-02-14T03:21:36.966Z,101259.36
2024-02-14T03:24:12.688Z,101264.76
2024-02-14T03:26:53.051Z,101267.75
2024-02-14T03:29:29.813Z,101274.04
2024-02-14T03:32:07.060Z,101278.27
2024-02-14T03:34:44.385Z,101272.93
2024-02-14T03:37:21.375Z,101270.86
2024-02-14T03:39:58.730Z,101274.41
2024-02-14T03:42:37.344Z,101273.83
2024-02-14T03:45:15.432Z,101272.83
2024-02-14T03:47:46.066Z,101279.00
2024-02-14T03:50:22.033Z,101279.77
2024-02-14T03:52:59.726Z,101282.98
2024-02-14T03:55:32.302Z,101283.59
2024-02-14T03:58:14.888Z,101284.14
2024-02-14T04:00:54.370Z,101286.75
2024-02-14T04:03:31.755Z,101286.48
2024-02-14T04:06:09.475Z,101286.03
2024-02-14T04:08:46.801Z,101289.40
2024-02-14T04:11:24.475Z,101289.52
2024-02-14T04:14:01.429Z,101294.23
2024-02-14T04:16:38.720Z,101294.47
2024-02-14T04:19:19.106Z,101295.86
2024-02-14T04:21:57.166Z,101300.76
2024-02-14T04:24:27.691Z,101298.77
2024-02-14T04:27:06.112Z,101297.74
2024-02-14T04:29:42.967Z,101298.01
2024-02-14T04:32:21.325Z,101298.50
2024-02-14T04:34:58.157Z,101296.38
2024-02-14T04:37:29.500Z,101299.23
2024-02-14T04:40:08.259Z,101300.25
2024-02-14T04:42:45.622Z,101299.30
2024-02-14T04:45:23.329Z,101305.06
2024-02-14T04:48:00.551Z,101304.77
2024-02-14T04:50:38.004Z,101309.38
2024-02-14T04:53:08.940Z,101310.08
2024-02-14T04:55:44.069Z,101316.05
2024-02-14T04:58:20.890Z,101317.48
2024-02-14T05:00:57.893Z,101324.20
2024-02-14T05:03:35.186Z,101326.13
2024-02-14T05:06:12.718Z,101327.22
2024-02-14T05:08:50.107Z,101329.34
2024-02-14T05:11:27.100Z,101332.44
2024-02-14T05:14:05.093Z,101327.91
2024-02-14T05:16:42.091Z,101324.26
2024-02-14T05:19:23.406Z,101326.56
2024-02-14T05:21:58.731Z,101328.66
2024-02-14T05:24:39.365Z,101332.86
2024-02-14T05:27:10.042Z,101331.64
2024-02-14T05:29:45.367Z,101335.73
2024-02-14T05:32:22.789Z,101337.45
2024-02-14T05:35:00.358Z,101332.27
2024-02-14T05:37:31.136Z,101332.80
2024-02-14T05:40:11.386Z,101337.44
2024-02-14T05:42:48.953Z,101336.90
2024-02-14T05:45:26.035Z,101337.55
2024-02-14T05:48:03.415Z,101342.92
2024-02-14T05:50:40.511Z,101340.84
2024-02-14T05:53:17.522Z,101336.08
2024-02-14T05:55:48.760Z,101338.16
2024-02-14T05:58:28.987Z,101337.40
2024-02-14T06:01:05.435Z,101342.09
2024-02-14T06:03:46.679Z,101345.64
2024-02-14T06:06:24.882Z,101345.52
2024-02-14T06:09:01.245Z,101350.71
2024-02-14T06:11:40.710Z,101349.64
2024-02-14T06:14:17.681Z,101350.77
2024-02-14T06:16:54.258Z,101351.53
2024-02-14T06:19:32.432Z,101356.61
2024-02-14T06:22:09.663Z,101361.07
2024-02-14T06:24:46.588Z,101364.92
2024-02-14T06:27:23.585Z,101368.88
2024-02-14T06:30:01.135Z,101367.77
2024-02-14T06:32:38.440Z,101368.66
2024-02-14T06:35:09.567Z,101367.81
2024-02-14T06:37:52.816Z,101367.98
2024-02-14T06:40:32.328Z,101366.64
2024-02-14T06:43:08.550Z,101365.96
2024-02-14T06:45:45.292Z,101369.02
2024-02-14T06:48:25.609Z,101369.88
2024-02-14T06:51:02.808Z,101369.13
2024-02-14T06:53:39.835Z,101364.27
2024-02-14T06:56:13.144Z,101367.11
2024-02-14T06:58:58.469Z,101367.22
2024-02-14T07:01:32.666Z,101371.00
2024-02-14T07:04:10.581Z,101372.62
2024-02-14T07:06:47.330Z,101374.50
2024-02-14T07:09:26.877Z,101379.36
2024-02-14T07:12:05.293Z,101379.39
2024-02-14T07:14:45.002Z,101379.71
2024-02-14T07:17:30.075Z,101381.55
2024-02-14T07:20:16.223Z,101377.09
2024-02-14T07:22:54.873Z,101376.94
2024-02-14T07:25:30.637Z,101377.20
2024-02-14T07:28:08.083Z,101377.45
2024-02-14T07:30:44.301Z,101378.01
2024-02-14T07:33:25.485Z,101378.89
2024-02-14T07:36:03.955Z,101378.79
2024-02-14T07:38:43.109Z,101375.62
2024-02-14T07:41:22.223Z,101373.16
2024-02-14T07:44:03.175Z,101375.58
2024-02-14T07:46:43.949Z,101377.50
2024-02-14T07:50:29.782Z,101382.06
2024-02-14T07:53:10.359Z,101382.61
2024-02-14T07:55:52.717Z,101380.13
2024-02-14T07:58:38.538Z,101382.17
2024-02-14T08:01:16.828Z,101380.70
2024-02-14T08:03:59.707Z,101379.10
2024-02-14T08:06:40.738Z,101380.25
2024-02-14T08:09:21.369Z,101377.05
2024-02-14T08:12:02.492Z,101373.41
2024-02-14T08:14:42.182Z,101373.16
2024-02-14T08:17:18.558Z,101375.92
2024-02-14T08:19:55.454Z,101376.14
2024-02-14T08:22:32.106Z,101373.67
2024-02-14T08:25:09.175Z,101375.39
2024-02-14T08:27:45.764Z,101375.06
2024-02-14T08:30:22.660Z,101375.02
2024-02-14T08:32:59.542Z,101369.77
2024-02-14T08:35:31.723Z,101368.41
2024-02-14T08:38:10.143Z,101362.02
2024-02-14T08:40:46.939Z,101362.67
2024-02-14T08:43:23.091Z,101357.33
2024-02-14T08:45:54.324Z,101353.61
2024-02-14T08:48:36.611Z,101357.46
2024-02-14T08:51:14.665Z,101355.74
2024-02-14T08:53:57.092Z,101357.16
2024-02-14T08:56:37.224Z,101354.88
2024-02-14T08:59:14.325Z,101353.99
2024-02-14T09:01:52.915Z,101352.83
2024-02-14T09:04:30.496Z,101350.50
2024-02-14T09:07:08.740Z,101352.02
2024-02-14T09:09:45.429Z,101348.86
2024-02-14T09:12:21.722Z,101346.02
2024-02-14T09:14:59.136Z,101344.02
2024-02-14T09:17:37.289Z,101345.77
2024-02-14T09:20:16.022Z,101346.55
2024-02-14T09:22:55.280Z,101343.40
2024-02-14T09:25:32.296Z,101345.05
2024-02-14T09:28:10.771Z,101341.50
2024-02-14T09:30:47.963Z,101335.94
2024-02-14T09:33:25.061Z,101335.48
2024-02-14T09:36:01.722Z,101335.95
2024-02-14T09:38:38.131Z,101336.75
2024-02-14T09:41:44.971Z,101340.36
2024-02-14T09:44:22.759Z,101337.87
2024-02-14T09:47:02.223Z,101334.73
2024-02-14T09:49:35.299Z,101338.20
2024-02-14T09:52:14.523Z,101339.75
2024-02-14T09:54:51.394Z,101342.13
2024-02-14T09:57:28.902Z,101336.88
2024-02-14T10:00:05.570Z,101338.15
2024-02-14T10:02:42.277Z,101336.65
2024-02-14T10:05:18.502Z,101335.64
2024-02-14T10:07:59.443Z,101330.00
2024-02-14T10:10:38.482Z,101325.31
2024-02-14T10:13:15.141Z,101329.37
2024-02-14T10:15:52.007Z,101324.44
2024-02-14T10:18:29.341Z,101323.52
2024-02-14T10:21:05.801Z,101322.52
2024-02-14T10:23:44.322Z,101319.73
2024-02-14T10:26:24.067Z,101320.52
2024-02-14T10:29:02.605Z,101321.05
2024-02-14T10:31:36.182Z,101323.29
2024-02-14T10:34:14.236Z,101324.63
2024-02-14T10:36:53.202Z,101323.33
2024-02-14T10:39:32.474Z,101316.67
2024-02-14T10:42:10.448Z,101320.27
2024-02-14T10:44:50.978Z,101316.55
2024-02-14T10:47:39.958Z,101313.97
2024-02-14T10:50:18.966Z,101316.41
2024-02-14T10:53:05.294Z,101315.33
2024-02-14T10:55:48.458Z,101313.84
2024-02-14T10:58:31.428Z,101309.34
2024-02-14T11:01:11.054Z,101307.83
2024-02-14T11:03:48.746Z,101303.96
2024-02-14T11:06:27.795Z,101307.08
2024-02-14T11:09:14.519Z,101301.66
2024-02-14T11:11:52.079Z,101295.02
2024-02-14T11:14:31.457Z,101296.11
2024-02-14T11:17:12.247Z,101298.56
2024-02-14T11:19:49.225Z,101294.19
2024-02-14T11:22:27.787Z,101293.23
2024-02-14T11:25:16.868Z,101292.48
2024-02-14T11:27:53.571Z,101290.82
2024-02-14T11:30:36.726Z,101294.89
2024-02-14T11:33:17.960Z,101289.57
2024-02-14T11:35:59.023Z,101287.83
2024-02-14T11:38:35.640Z,101290.06
2024-02-14T11:41:13.278Z,101289.09
2024-02-14T11:43:54.174Z,101290.04
2024-02-14T11:46:32.497Z,101282.70
2024-02-14T11:49:10.991Z,101281.69
2024-02-14T11:51:49.229Z,101282.95
2024-02-14T11:54:26.019Z,101285.86
2024-02-14T11:57:02.874Z,101284.95
2024-02-14T11:59:39.829Z,101285.53
2024-02-14T12:02:16.621Z,101284.71
2024-02-14T12:04:56.646Z,101280.01
2024-02-14T12:07:33.201Z,101281.38
2024-02-14T12:10:14.279Z,101280.52
2024-02-14T12:12:52.266Z,101282.30
2024-02-14T12:15:30.575Z,101280.95
2024-02-14T12:18:03.274Z,101282.67
2024-02-14T12:20:36.219Z,101279.19
2024-02-14T12:23:23.653Z,101278.23
2024-02-14T12:25:55.685Z,101276.48
2024-02-14T12:28:33.798Z,101275.45
2024-02-14T12:31:10.497Z,101274.89
2024-02-14T12:33:49.464Z,101271.23
2024-02-14T12:36:26.474Z,101278.61
2024-02-14T12:39:05.568Z,101273.33
2024-02-14T12:41:43.099Z,101270.52
2024-02-14T12:44:19.954Z,101266.61
2024-02-14T12:46:56.738Z,101268.55
2024-02-14T12:49:33.370Z,101265.75
2024-02-14T12:52:10.648Z,101267.12
2024-02-14T12:54:41.217Z,101266.01
2024-02-14T12:57:17.145Z,101267.85
2024-02-14T12:59:53.633Z,101263.73
2024-02-14T13:02:26.630Z,101269.95
2024-02-14T13:05:06.328Z,101273.04
2024-02-14T13:07:43.102Z,101269.36
2024-02-14T13:10:20.205Z,101267.39
2024-02-14T13:13:00.509Z,101265.54
2024-02-14T13:15:39.318Z,101262.50
2024-02-14T13:18:17.683Z,101267.02
2024-02-14T13:21:03.496Z,101271.27
2024-02-14T13:23:42.049Z,101268.33
2024-02-14T13:26:18.826Z,101269.41
2024-02-14T13:28:55.994Z,101269.45
2024-02-14T13:31:32.730Z,101266.70
2024-02-14T13:34:11.515Z,101269.14
2024-02-14T13:36:42.430Z,101266.40
2024-02-14T13:39:14.205Z,101261.92
2024-02-14T13:41:51.631Z,101264.46
2024-02-14T13:44:29.249Z,101265.86
2024-02-14T13:47:00.537Z,101263.84
2024-02-14T13:49:38.760Z,101262.11
2024-02-14T13:52:17.117Z,101265.75
2024-02-14T13:54:53.940Z,101260.89
2024-02-14T13:57:31.444Z,101257.33
2024-02-14T14:00:02.063Z,101257.71
2024-02-14T14:02:44.260Z,101252.02
2024-02-14T14:05:18.522Z,101258.00
2024-02-14T14:07:58.471Z,101258.20
2024-02-14T14:10:37.852Z,101257.11
2024-02-14T14:13:15.398Z,101256.88
2024-02-14T14:15:53.206Z,101255.24
2024-02-14T14:18:29.717Z,101253.70
2024-02-14T14:21:07.730Z,101257.84
2024-02-14T14:23:44.738Z,101260.77
2024-02-14T14:26:22.442Z,101265.09
2024-02-14T14:28:59.624Z,101268.45
2024-02-14T14:31:37.742Z,101267.34
2024-02-14T14:34:15.791Z,101262.52
2024-02-14T14:36:57.366Z,101259.74
2024-02-14T14:39:36.155Z,101260.20
2024-02-14T14:42:10.114Z,101261.73
2024-02-14T14:44:42.078Z,101262.52
2024-02-14T14:47:19.735Z,101261.19
2024-02-14T14:49:55.211Z,101262.70
2024-02-14T14:52:32.918Z,101265.38
2024-02-14T14:55:10.938Z,101263.33
2024-02-14T14:57:47.857Z,101259.52
2024-02-14T15:00:25.722Z,101261.17
2024-02-14T15:03:02.824Z,101265.24
2024-02-14T15:05:40.500Z,101261.48
2024-02-14T15:08:27.849Z,101261.98
2024-02-14T15:11:07.662Z,101255.27
2024-02-14T15:13:45.955Z,101254.15
2024-02-14T15:16:22.975Z,101255.55
2024-02-14T15:19:00.933Z,101259.49
2024-02-14T15:21:37.981Z,101262.77
2024-02-14T15:24:10.032Z,101263.04
2024-02-14T15:26:53.755Z,101262.07
2024-02-14T15:29:44.556Z,101267.29
2024-02-14T15:32:40.346Z,101266.56
2024-02-14T15:35:19.011Z,101266.16
2024-02-14T15:37:56.561Z,101265.83
2024-02-14T15:40:36.614Z,101269.59
2024-02-14T15:43:07.232Z,101273.66
2024-02-14T15:45:45.004Z,101275.96
2024-02-14T15:48:22.731Z,101273.80
2024-02-14T15:51:00.063Z,101277.88
2024-02-14T15:53:39.518Z,101281.73
2024-02-14T15:56:19.634Z,101281.48
2024-02-14T15:58:56.707Z,101281.32
2024-02-14T16:01:34.418Z,101275.84
2024-02-14T16:04:10.827Z,101275.67
2024-02-14T16:06:42.026Z,101276.27
2024-02-14T16:09:20.498Z,101279.48
2024-02-14T16:11:58.815Z,101284.02
2024-02-14T16:14:38.889Z,101288.66
2024-02-14T16:17:16.404Z,101292.92
2024-02-14T16:19:53.596Z,101292.95
2024-02-14T16:22:31.173Z,101293.84
2024-02-14T16:25:08.793Z,101292.84
2024-02-14T16:27:48.118Z,101293.41
2024-02-14T16:30:25.749Z,101295.13
2024-02-14T16:33:03.410Z,101295.11
2024-02-14T16:35:40.959Z,101292.99
2024-02-14T16:38:18.196Z,101292.23
2024-02-14T16:40:55.445Z,101283.54
2024-02-14T16:43:26.381Z,101294.85
2024-02-14T16:46:03.157Z,101300.88
2024-02-14T16:48:40.087Z,101297.15
2024-02-14T16:51:19.155Z,101299.87
2024-02-14T16:53:56.708Z,101298.02
2024-02-14T16:56:34.644Z,101301.88
2024-02-14T16:59:13.180Z,101302.44
2024-02-14T17:01:49.988Z,101302.52
2024-02-14T17:04:27.171Z,101301.61
2024-02-14T17:07:04.725Z,101305.50
2024-02-14T17:09:43.996Z,101308.23
2024-02-14T17:12:21.455Z,101297.29
2024-02-14T17:14:59.141Z,101308.23
2024-02-14T17:17:36.296Z,101313.47
2024-02-14T17:20:09.348Z,101316.00
2024-02-14T17:22:44.482Z,101314.73
2024-02-14T17:25:23.208Z,101313.94
2024-02-14T17:27:59.802Z,101311.50
2024-02-14T17:30:37.145Z,101311.93
2024-02-14T17:33:14.077Z,101314.30
2024-02-14T17:35:51.189Z,101316.24
2024-02-14T17:38:29.411Z,101317.80
2024-02-14T17:41:05.669Z,101321.16
2024-02-14T17:43:42.316Z,101318.92
2024-02-14T17:46:20.024Z,101322.90
2024-02-14T17:48:52.579Z,101319.34
2024-02-14T17:51:30.512Z,101319.48
2024-02-14T17:54:08.090Z,101315.19
2024-02-14T17:56:45.004Z,101311.48
2024-02-14T17:59:21.637Z,101315.21
2024-02-14T18:01:58.776Z,101316.50
2024-02-14T18:04:35.670Z,101318.13
2024-02-14T18:07:13.202Z,101318.20
2024-02-14T18:09:49.531Z,101314.75
2024-02-14T18:12:27.682Z,101318.35
2024-02-14T18:15:05.371Z,101316.46
2024-02-14T18:17:42.146Z,101318.14
2024-02-14T18:20:19.919Z,101318.14
2024-02-14T18:22:50.421Z,101318.55
2024-02-14T18:25:26.149Z,101321.41
2024-02-14T18:28:04.220Z,101329.20
2024-02-14T18:30:41.241Z,101330.98
2024-02-14T18:33:18.056Z,101328.45
2024-02-14T18:35:55.858Z,101330.11
2024-02-14T18:38:33.727Z,101326.61
2024-02-14T18:41:12.362Z,101327.52
2024-02-14T18:43:49.842Z,101323.51
2024-02-14T18:46:28.217Z,101326.13
2024-02-14T18:49:06.632Z,101327.77
2024-02-14T18:51:42.841Z,101327.96
2024-02-14T18:54:13.298Z,101329.78
2024-02-14T18:56:47.477Z,101327.15
2024-02-14T18:59:25.001Z,101326.55
2024-02-14T19:02:02.040Z,101325.79
2024-02-14T19:04:41.947Z,101329.41
2024-02-14T19:07:20.139Z,101329.98
2024-02-14T19:09:57.439Z,101328.86
2024-02-14T19:12:34.725Z,101328.17
2024-02-14T19:15:12.469Z,101320.37
2024-02-14T19:17:49.981Z,101320.56
2024-02-14T19:20:29.155Z,101312.79
2024-02-14T19:23:08.549Z,101317.26
2024-02-14T19:25:45.785Z,101313.30
2024-02-14T19:28:22.553Z,101316.34
2024-02-14T19:30:53.405Z,101316.86
2024-02-14T19:33:28.386Z,101318.27
2024-02-14T19:36:08.942Z,101323.67
2024-02-14T19:38:46.290Z,101319.98
2024-02-14T19:41:23.178Z,101321.48
2024-02-14T19:43:59.777Z,101320.55
2024-02-14T19:46:36.210Z,101320.14
2024-02-14T19:49:16.160Z,101318.14
2024-02-14T19:51:54.048Z,101318.38
2024-02-14T19:54:27.458Z,101317.56
2024-02-14T19:57:05.403Z,101319.12
2024-02-14T19:59:42.073Z,101304.61
2024-02-14T20:02:12.576Z,101320.09
2024-02-14T20:04:50.600Z,101322.04
2024-02-14T20:07:27.057Z,101319.04
2024-02-14T20:10:05.509Z,101323.27
2024-02-14T20:12:43.107Z,101330.71
2024-02-14T20:15:35.333Z,101331.68
2024-02-14T20:18:14.083Z,101330.34
2024-02-14T20:20:50.180Z,101327.28
2024-02-14T20:23:28.286Z,101327.63
2024-02-14T20:26:04.774Z,101329.21
2024-02-14T20:28:41.394Z,101329.23
2024-02-14T20:31:18.027Z,101330.05
2024-02-14T20:33:55.435Z,101329.54
2024-02-14T20:36:33.110Z,101328.27
2024-02-14T20:39:10.235Z,101327.21
2024-02-14T20:41:46.464Z,101327.98
2024-02-14T20:44:23.590Z,101323.64
2024-02-14T20:46:54.745Z,101326.45
2024-02-14T20:49:31.649Z,101321.27
2024-02-14T20:52:08.706Z,101314.02
2024-02-14T20:54:45.653Z,101305.52
2024-02-14T20:57:16.611Z,101309.34
2024-02-14T20:59:54.166Z,101307.83
2024-02-14T21:02:31.262Z,101308.33
2024-02-14T21:05:08.368Z,101306.99
2024-02-14T21:07:44.573Z,101309.77
2024-02-14T21:10:17.426Z,101307.52
2024-02-14T21:12:51.944Z,101309.86
2024-02-14T21:15:30.493Z,101309.77
2024-02-14T21:18:08.026Z,101315.09
2024-02-14T21:20:45.122Z,101309.84
2024-02-14T21:23:21.660Z,101301.39
2024-02-14T21:25:57.634Z,101301.12
2024-02-14T21:28:34.764Z,101301.11
2024-02-14T21:31:07.119Z,101303.84
2024-02-14T21:33:46.126Z,101305.92
2024-02-14T21:36:18.046Z,101310.55
2024-02-14T21:38:52.621Z,101305.70
2024-02-14T21:41:29.595Z,101305.61
2024-02-14T21:44:07.154Z,101306.98
2024-02-14T21:46:44.907Z,101304.57
2024-02-14T21:49:22.077Z,101306.78
2024-02-14T21:51:59.825Z,101300.72
2024-02-14T21:54:36.543Z,101303.28
2024-02-14T21:57:13.238Z,101303.43
2024-02-14T21:59:50.274Z,101301.84
2024-02-14T22:02:27.234Z,101302.39
2024-02-14T22:05:04.762Z,101299.41
2024-02-14T22:07:36.855Z,101299.95
2024-02-14T22:10:13.727Z,101299.23
2024-02-14T22:12:50.056Z,101296.65
2024-02-14T22:15:26.865Z,101286.55
2024-02-14T22:18:03.596Z,101298.70
2024-02-14T22:20:40.761Z,101299.06
2024-02-14T22:23:19.490Z,101298.89
2024-02-14T22:25:56.865Z,101298.94
2024-02-14T22:28:36.094Z,101297.58
2024-02-14T22:31:13.267Z,101296.11
2024-02-14T22:33:51.356Z,101298.55
2024-02-14T22:36:28.863Z,101298.30
2024-02-14T22:39:08.244Z,101303.70
2024-02-14T22:41:45.905Z,101304.03
2024-02-14T22:44:17.979Z,101307.61
2024-02-14T22:46:55.030Z,101308.19
2024-02-14T22:49:31.272Z,101305.05
2024-02-14T22:52:08.905Z,101303.94
2024-02-14T22:54:44.951Z,101301.83
2024-02-14T22:57:21.888Z,101305.05
2024-02-14T22:59:58.517Z,101301.11
2024-02-14T23:02:35.610Z,101298.23
2024-02-14T23:05:15.895Z,101296.72
2024-02-14T23:07:58.308Z,101296.33
2024-02-14T23:10:34.705Z,101300.09
2024-02-14T23:16:35.482Z,101307.17
2024-02-14T23:19:12.664Z,101307.41
2024-02-14T23:21:50.311Z,101304.59
2024-02-14T23:24:29.207Z,101304.91
2024-02-14T23:27:09.260Z,101299.97
2024-02-14T23:29:40.420Z,101300.49
2024-02-14T23:32:13.582Z,101298.16
2024-02-14T23:34:51.905Z,101301.83
2024-02-14T23:37:28.939Z,101300.98
2024-02-14T23:40:05.186Z,101305.38
2024-02-14T23:42:44.613Z,101308.01
2024-02-14T23:45:21.464Z,101308.23
2024-02-14T23:48:00.213Z,101309.88
2024-02-14T23:50:36.986Z,101309.92
2024-02-14T23:53:14.012Z,101302.60
2024-02-14T23:55:50.342Z,101306.48
2024-02-14T23:58:28.686Z,101306.42
